createdAt,value
2023-09-09T00:01:58.418Z,18.00
2023-09-09T00:04:25.119Z,18.10
2023-09-09T00:06:51.765Z,18.16
2023-09-09T00:09:18.505Z,18.15
2023-09-09T00:11:45.107Z,18.14
2023-09-09T00:14:11.797Z,17.89
2023-09-09T00:16:38.575Z,17.72
2023-09-09T00:19:06.399Z,17.48
2023-09-09T00:21:33.070Z,17.51
2023-09-09T00:23:59.697Z,17.57
2023-09-09T00:26:28.989Z,17.53
2023-09-09T00:28:55.835Z,17.58
2023-09-09T00:31:22.626Z,17.50
2023-09-09T00:33:49.344Z,17.56
2023-09-09T00:36:16.248Z,17.54
2023-09-09T00:38:43.035Z,17.46
2023-09-09T00:41:18.617Z,17.44
2023-09-09T00:43:46.506Z,17.36
2023-09-09T00:46:15.119Z,17.42
2023-09-09T00:48:41.828Z,17.42
2023-09-09T00:51:12.832Z,17.46
2023-09-09T00:53:40.701Z,17.47
2023-09-09T00:56:07.728Z,17.39
2023-09-09T00:58:34.471Z,17.49
2023-09-09T01:01:03.422Z,17.57
2023-09-09T01:03:32.006Z,17.41
2023-09-09T01:05:59.206Z,17.49
2023-09-09T01:08:29.977Z,17.44
2023-09-09T01:10:57.873Z,17.44
2023-09-09T01:13:24.974Z,17.44
2023-09-09T01:15:54.835Z,17.35
2023-09-09T01:18:22.530Z,17.39
2023-09-09T01:21:00.928Z,17.35
2023-09-09T01:23:27.660Z,17.23
2023-09-09T01:25:54.363Z,17.18
2023-09-09T01:28:23.438Z,17.21
2023-09-09T01:30:50.841Z,17.18
2023-09-09T01:33:18.173Z,17.27
2023-09-09T01:35:45.256Z,17.23
2023-09-09T01:38:11.738Z,17.11
2023-09-09T01:40:38.362Z,17.06
2023-09-09T01:43:05.064Z,17.09
2023-09-09T01:45:31.790Z,16.99
2023-09-09T01:47:59.787Z,17.00
2023-09-09T01:50:26.650Z,16.89
2023-09-09T01:52:53.431Z,16.94
2023-09-09T01:55:20.146Z,16.81
2023-09-09T01:57:48.163Z,16.82
2023-09-09T02:00:15.693Z,16.94
2023-09-09T02:02:42.469Z,17.01
2023-09-09T02:05:10.659Z,16.94
2023-09-09T02:07:37.387Z,16.96
2023-09-09T02:10:04.619Z,16.91
2023-09-09T02:12:31.412Z,16.90
2023-09-09T02:14:58.098Z,16.86
2023-09-09T02:17:24.817Z,16.88
2023-09-09T02:19:58.403Z,16.86
2023-09-09T02:22:25.393Z,16.68
2023-09-09T02:24:56.812Z,16.65
2023-09-09T02:27:24.438Z,16.70
2023-09-09T02:29:51.661Z,16.58
2023-09-09T02:32:18.940Z,16.33
2023-09-09T02:34:46.070Z,16.25
2023-09-09T02:37:23.127Z,16.37
2023-09-09T02:39:51.542Z,16.33
2023-09-09T02:42:20.528Z,16.28
2023-09-09T02:44:48.098Z,16.25
2023-09-09T02:47:14.779Z,16.29
2023-09-09T02:49:42.057Z,16.20
2023-09-09T02:52:09.065Z,16.32
2023-09-09T02:54:36.254Z,16.38
2023-09-09T02:57:04.970Z,16.34
2023-09-09T02:59:34.322Z,16.38
2023-09-09T03:02:01.817Z,16.18
2023-09-09T03:04:28.760Z,16.38
2023-09-09T03:06:55.355Z,16.13
2023-09-09T03:09:22.145Z,16.09
2023-09-09T03:11:48.820Z,15.90
2023-09-09T03:14:15.700Z,15.94
2023-09-09T03:16:42.490Z,15.86
2023-09-09T03:19:09.169Z,15.79
2023-09-09T03:21:35.757Z,15.78
2023-09-09T03:24:02.389Z,15.87
2023-09-09T03:26:29.089Z,15.99
2023-09-09T03:28:55.689Z,15.92
2023-09-09T03:31:22.318Z,15.86
2023-09-09T03:33:48.947Z,15.99
2023-09-09T03:36:15.633Z,15.96
2023-09-09T03:38:42.226Z,16.03
2023-09-09T03:41:09.202Z,16.08
2023-09-09T03:43:37.854Z,16.11
2023-09-09T03:46:05.238Z,16.06
2023-09-09T03:48:32.069Z,16.06
2023-09-09T03:51:02.961Z,16.09
2023-09-09T03:53:29.807Z,15.98
2023-09-09T03:55:56.663Z,16.19
2023-09-09T03:58:25.364Z,16.06
2023-09-09T04:01:09.244Z,15.86
2023-09-09T04:03:38.243Z,15.78
2023-09-09T04:06:07.899Z,15.90
2023-09-09T04:08:36.460Z,15.73
2023-09-09T04:11:04.261Z,15.48
2023-09-09T04:13:31.545Z,15.35
2023-09-09T04:15:59.655Z,15.38
2023-09-09T04:18:42.986Z,15.41
2023-09-09T04:21:11.202Z,15.34
2023-09-09T04:23:38.000Z,15.35
2023-09-09T04:26:04.966Z,15.34
2023-09-09T04:28:31.588Z,15.34
2023-09-09T04:30:58.168Z,15.41
2023-09-09T04:33:25.000Z,15.48
2023-09-09T04:35:51.681Z,15.42
2023-09-09T04:38:18.367Z,15.48
2023-09-09T04:40:44.991Z,15.48
2023-09-09T04:43:11.575Z,15.53
2023-09-09T04:45:38.224Z,15.60
2023-09-09T04:48:06.437Z,15.64
2023-09-09T04:50:33.268Z,15.69
2023-09-09T04:53:00.025Z,15.75
2023-09-09T04:55:26.745Z,15.82
2023-09-09T04:57:53.402Z,15.81
2023-09-09T05:00:20.065Z,15.76
2023-09-09T05:02:46.745Z,15.73
2023-09-09T05:05:13.431Z,15.82
2023-09-09T05:07:40.025Z,15.89
2023-09-09T05:10:07.545Z,15.68
2023-09-09T05:12:35.222Z,15.75
2023-09-09T05:15:01.855Z,15.76
2023-09-09T05:17:28.688Z,15.68
2023-09-09T05:19:55.654Z,15.73
2023-09-09T05:22:22.263Z,15.74
2023-09-09T05:24:48.948Z,15.64
2023-09-09T05:27:15.507Z,15.61
2023-09-09T05:29:44.228Z,15.66
2023-09-09T05:32:11.298Z,15.59
2023-09-09T05:34:38.108Z,15.62
2023-09-09T05:37:04.966Z,15.57
2023-09-09T05:39:31.623Z,15.63
2023-09-09T05:41:58.273Z,15.82
2023-09-09T05:44:24.919Z,15.97
2023-09-09T05:46:51.645Z,16.24
2023-09-09T05:49:32.088Z,16.51
2023-09-09T05:52:03.410Z,16.92
2023-09-09T05:54:29.999Z,17.57
2023-09-09T05:56:57.627Z,18.04
2023-09-09T05:59:24.404Z,18.58
2023-09-09T06:01:51.128Z,18.96
2023-09-09T06:04:17.878Z,19.41
2023-09-09T06:06:48.163Z,19.91
2023-09-09T06:09:14.804Z,19.81
2023-09-09T06:11:41.652Z,20.36
2023-09-09T06:14:08.474Z,20.64
2023-09-09T06:16:35.127Z,21.31
2023-09-09T06:19:01.788Z,21.83
2023-09-09T06:21:28.541Z,22.03
2023-09-09T06:23:56.126Z,22.11
2023-09-09T06:26:22.771Z,22.17
2023-09-09T06:28:49.509Z,22.33
2023-09-09T06:31:16.170Z,22.81
2023-09-09T06:33:44.938Z,23.35
2023-09-09T06:36:12.502Z,23.68
2023-09-09T06:38:39.291Z,23.99
2023-09-09T06:41:06.104Z,24.20
2023-09-09T06:43:32.746Z,24.37
2023-09-09T06:46:01.333Z,24.77
2023-09-09T06:48:30.282Z,25.18
2023-09-09T06:50:57.501Z,25.35
2023-09-09T06:53:25.900Z,25.55
2023-09-09T06:55:53.148Z,25.90
2023-09-09T06:58:19.720Z,25.93
2023-09-09T07:00:53.379Z,25.74
2023-09-09T07:03:21.240Z,25.99
2023-09-09T07:05:48.497Z,26.36
2023-09-09T07:08:15.064Z,26.49
2023-09-09T07:10:51.950Z,26.02
2023-09-09T07:13:18.789Z,26.21
2023-09-09T07:15:45.402Z,26.52
2023-09-09T07:18:12.077Z,27.07
2023-09-09T07:20:39.487Z,27.57
2023-09-09T07:23:06.246Z,27.79
2023-09-09T07:25:34.671Z,28.06
2023-09-09T07:28:01.494Z,28.12
2023-09-09T07:30:28.107Z,27.98
2023-09-09T07:32:54.700Z,27.58
2023-09-09T07:35:22.056Z,27.98
2023-09-09T07:37:51.505Z,27.92
2023-09-09T07:40:19.177Z,28.06
2023-09-09T07:42:45.715Z,27.78
2023-09-09T07:45:12.457Z,28.11
2023-09-09T07:47:39.713Z,28.20
2023-09-09T07:50:07.333Z,28.38
2023-09-09T07:52:33.942Z,28.61
2023-09-09T07:55:00.507Z,28.95
2023-09-09T07:57:27.207Z,28.98
2023-09-09T07:59:53.973Z,29.12
2023-09-09T08:02:20.538Z,29.49
2023-09-09T08:04:48.406Z,29.59
2023-09-09T08:07:15.153Z,29.63
2023-09-09T08:09:42.351Z,29.90
2023-09-09T08:12:09.126Z,30.20
2023-09-09T08:14:35.713Z,30.26
2023-09-09T08:17:02.354Z,30.15
2023-09-09T08:19:29.088Z,30.09
2023-09-09T08:21:55.653Z,29.94
2023-09-09T08:24:22.979Z,30.01
2023-09-09T08:26:49.829Z,29.38
2023-09-09T08:29:16.443Z,29.66
2023-09-09T08:31:43.136Z,29.76
2023-09-09T08:34:09.748Z,30.05
2023-09-09T08:36:36.375Z,30.27
2023-09-09T08:39:03.029Z,30.64
2023-09-09T08:42:09.830Z,30.42
2023-09-09T08:44:46.111Z,30.24
2023-09-09T08:47:13.097Z,30.22
2023-09-09T08:49:42.689Z,30.40
2023-09-09T08:52:17.408Z,30.74
2023-09-09T08:54:44.894Z,31.14
2023-09-09T08:57:11.690Z,30.77
2023-09-09T08:59:39.675Z,30.88
2023-09-09T09:02:09.678Z,30.93
2023-09-09T09:04:38.174Z,30.89
2023-09-09T09:07:06.653Z,30.93
2023-09-09T09:09:35.867Z,31.05
2023-09-09T09:12:04.348Z,31.20
2023-09-09T09:14:31.312Z,31.57
2023-09-09T09:16:58.044Z,31.60
2023-09-09T09:19:28.699Z,31.51
2023-09-09T09:21:56.622Z,31.83
2023-09-09T09:24:27.654Z,31.98
2023-09-09T09:26:56.225Z,31.90
2023-09-09T09:29:23.118Z,31.65
2023-09-09T09:31:53.404Z,31.56
2023-09-09T09:34:21.228Z,30.92
2023-09-09T09:36:48.058Z,31.02
2023-09-09T09:39:16.554Z,31.02
2023-09-09T09:41:44.620Z,30.83
2023-09-09T09:44:21.755Z,30.69
2023-09-09T09:47:05.246Z,30.71
2023-09-09T09:49:42.668Z,30.67
2023-09-09T09:52:09.903Z,30.61
2023-09-09T09:54:38.073Z,30.58
2023-09-09T09:57:06.389Z,30.66
2023-09-09T09:59:35.371Z,30.61
2023-09-09T10:02:04.687Z,30.63
2023-09-09T10:04:40.184Z,30.79
2023-09-09T10:07:11.257Z,30.90
2023-09-09T10:09:39.978Z,31.02
2023-09-09T10:12:42.051Z,31.00
2023-09-09T10:15:14.577Z,30.93
2023-09-09T10:17:42.333Z,30.92
2023-09-09T10:20:09.727Z,30.93
2023-09-09T10:22:37.527Z,31.05
2023-09-09T10:25:05.613Z,31.06
2023-09-09T10:27:33.087Z,30.86
2023-09-09T10:30:01.923Z,30.67
2023-09-09T10:32:29.433Z,30.75
2023-09-09T10:34:57.204Z,30.77
2023-09-09T10:37:24.042Z,30.74
2023-09-09T10:39:51.467Z,30.80
2023-09-09T10:42:19.816Z,30.83
2023-09-09T10:44:49.967Z,30.60
2023-09-09T10:47:17.929Z,30.52
2023-09-09T10:49:44.676Z,30.55
2023-09-09T10:52:33.765Z,30.55
2023-09-09T10:55:15.990Z,30.66
2023-09-09T10:57:43.507Z,30.77
2023-09-09T11:00:40.353Z,30.78
2023-09-09T11:03:11.456Z,30.89
2023-09-09T11:05:57.792Z,31.03
2023-09-09T11:08:30.542Z,30.93
2023-09-09T11:11:13.745Z,31.06
2023-09-09T11:13:41.706Z,30.85
2023-09-09T11:16:08.621Z,30.76
2023-09-09T11:18:36.540Z,30.86
2023-09-09T11:21:06.635Z,30.88
2023-09-09T11:23:34.312Z,30.88
2023-09-09T11:26:02.670Z,31.07
2023-09-09T11:28:30.543Z,31.19
2023-09-09T11:30:57.183Z,31.25
2023-09-09T11:33:26.959Z,31.10
2023-09-09T11:35:53.676Z,30.91
2023-09-09T11:38:20.322Z,31.02
2023-09-09T11:40:47.384Z,31.15
2023-09-09T11:43:16.839Z,31.06
2023-09-09T11:45:43.638Z,31.04
2023-09-09T11:48:15.371Z,30.90
2023-09-09T11:50:43.299Z,30.90
2023-09-09T11:53:11.004Z,30.91
2023-09-09T11:55:37.775Z,30.96
2023-09-09T11:58:04.497Z,30.82
2023-09-09T12:00:31.512Z,30.60
2023-09-09T12:02:58.200Z,30.70
2023-09-09T12:05:31.131Z,30.75
2023-09-09T12:08:03.103Z,30.75
2023-09-09T12:10:35.000Z,30.79
2023-09-09T12:13:01.933Z,30.75
2023-09-09T12:15:28.821Z,30.92
2023-09-09T12:17:55.665Z,30.90
2023-09-09T12:20:22.253Z,30.79
2023-09-09T12:22:49.229Z,30.61
2023-09-09T12:25:28.883Z,30.66
2023-09-09T12:27:55.491Z,30.70
2023-09-09T12:30:32.942Z,30.66
2023-09-09T12:33:10.959Z,30.76
2023-09-09T12:35:49.017Z,30.91
2023-09-09T12:38:16.867Z,30.85
2023-09-09T12:40:46.486Z,30.69
2023-09-09T12:43:13.778Z,30.58
2023-09-09T12:45:48.116Z,30.69
2023-09-09T12:48:15.158Z,30.62
2023-09-09T12:50:43.181Z,30.67
2023-09-09T12:53:11.701Z,30.74
2023-09-09T12:55:38.528Z,30.66
2023-09-09T12:58:05.248Z,30.72
2023-09-09T13:00:32.076Z,30.64
2023-09-09T13:02:58.799Z,30.66
2023-09-09T13:05:25.600Z,30.69
2023-09-09T13:07:52.184Z,30.69
2023-09-09T13:10:19.231Z,30.76
2023-09-09T13:12:47.360Z,30.76
2023-09-09T13:15:14.885Z,30.76
2023-09-09T13:17:41.953Z,30.72
2023-09-09T13:20:09.301Z,30.90
2023-09-09T13:22:36.155Z,30.89
2023-09-09T13:25:03.249Z,30.75
2023-09-09T13:27:30.072Z,30.82
2023-09-09T13:29:56.679Z,30.77
2023-09-09T13:32:23.802Z,30.76
2023-09-09T13:34:50.482Z,30.84
2023-09-09T13:37:17.138Z,30.70
2023-09-09T13:39:43.795Z,30.68
2023-09-09T13:42:10.483Z,30.60
2023-09-09T13:44:40.745Z,30.52
2023-09-09T13:47:16.103Z,30.49
2023-09-09T13:49:45.883Z,30.62
2023-09-09T13:52:13.038Z,30.65
2023-09-09T13:54:40.078Z,30.76
2023-09-09T13:57:07.477Z,30.71
2023-09-09T13:59:35.104Z,30.54
2023-09-09T14:02:03.209Z,30.58
2023-09-09T14:04:33.416Z,30.56
2023-09-09T14:07:00.093Z,30.54
2023-09-09T14:09:29.284Z,30.56
2023-09-09T14:11:56.524Z,30.34
2023-09-09T14:14:24.064Z,30.39
2023-09-09T14:16:52.093Z,30.55
2023-09-09T14:19:19.178Z,30.48
2023-09-09T14:21:45.828Z,30.51
2023-09-09T14:24:12.566Z,30.47
2023-09-09T14:26:39.473Z,30.43
2023-09-09T14:29:06.179Z,30.45
2023-09-09T14:31:33.113Z,30.48
2023-09-09T14:33:59.643Z,30.44
2023-09-09T14:36:26.232Z,30.36
2023-09-09T14:38:52.979Z,30.38
2023-09-09T14:41:19.641Z,30.34
2023-09-09T14:43:46.418Z,30.29
2023-09-09T14:46:13.098Z,30.23
2023-09-09T14:48:57.940Z,30.15
2023-09-09T14:51:25.211Z,30.24
2023-09-09T14:53:51.979Z,30.22
2023-09-09T14:56:19.070Z,30.26
2023-09-09T14:58:45.575Z,30.18
2023-09-09T15:01:12.200Z,30.10
2023-09-09T15:03:40.100Z,30.07
2023-09-09T15:06:07.090Z,30.06
2023-09-09T15:08:33.775Z,29.99
2023-09-09T15:11:00.327Z,29.94
2023-09-09T15:13:27.058Z,30.02
2023-09-09T15:15:53.834Z,29.85
2023-09-09T15:18:20.549Z,29.90
2023-09-09T15:20:47.320Z,29.91
2023-09-09T15:23:13.864Z,29.91
2023-09-09T15:25:40.622Z,29.95
2023-09-09T15:28:07.268Z,29.79
2023-09-09T15:30:33.930Z,29.86
2023-09-09T15:33:00.693Z,29.81
2023-09-09T15:35:29.778Z,29.61
2023-09-09T15:37:56.658Z,29.49
2023-09-09T15:40:23.449Z,29.41
2023-09-09T15:42:50.108Z,29.16
2023-09-09T15:45:16.923Z,28.84
2023-09-09T15:47:43.559Z,28.71
2023-09-09T15:50:11.540Z,28.56
2023-09-09T15:52:38.278Z,28.57
2023-09-09T15:55:05.075Z,28.50
2023-09-09T15:57:31.787Z,28.46
2023-09-09T15:59:58.470Z,28.39
2023-09-09T16:02:25.996Z,28.34
2023-09-09T16:04:52.732Z,28.20
2023-09-09T16:07:19.571Z,28.05
2023-09-09T16:09:46.232Z,28.05
2023-09-09T16:12:12.840Z,28.02
2023-09-09T16:14:39.485Z,27.94
2023-09-09T16:17:06.192Z,27.85
2023-09-09T16:19:32.880Z,27.67
2023-09-09T16:21:59.530Z,27.61
2023-09-09T16:24:26.215Z,27.54
2023-09-09T16:26:52.826Z,27.49
2023-09-09T16:29:19.413Z,27.50
2023-09-09T16:31:46.088Z,27.46
2023-09-09T16:34:12.692Z,27.28
2023-09-09T16:36:39.347Z,27.27
2023-09-09T16:39:05.946Z,27.19
2023-09-09T16:41:32.568Z,27.06
2023-09-09T16:43:59.329Z,27.06
2023-09-09T16:46:26.731Z,26.82
2023-09-09T16:48:53.733Z,26.83
2023-09-09T16:51:20.402Z,26.82
2023-09-09T16:53:47.935Z,26.71
2023-09-09T16:56:14.710Z,26.69
2023-09-09T16:58:41.893Z,26.54
2023-09-09T17:01:08.807Z,26.50
2023-09-09T17:03:35.812Z,26.35
2023-09-09T17:06:02.518Z,26.34
2023-09-09T17:08:29.465Z,26.32
2023-09-09T17:10:56.140Z,26.23
2023-09-09T17:13:22.809Z,26.21
2023-09-09T17:15:50.033Z,26.16
2023-09-09T17:18:16.614Z,26.09
2023-09-09T17:20:43.460Z,26.07
2023-09-09T17:23:10.165Z,26.06
2023-09-09T17:25:36.770Z,26.04
2023-09-09T17:28:03.656Z,25.94
2023-09-09T17:30:30.310Z,25.92
2023-09-09T17:32:57.599Z,25.88
2023-09-09T17:35:25.213Z,25.84
2023-09-09T17:37:51.912Z,25.81
2023-09-09T17:40:19.364Z,25.69
2023-09-09T17:42:46.108Z,25.69
2023-09-09T17:45:12.888Z,25.68
2023-09-09T17:47:42.871Z,25.68
2023-09-09T17:50:09.879Z,25.64
2023-09-09T17:52:36.544Z,25.55
2023-09-09T17:55:04.941Z,25.52
2023-09-09T17:57:32.003Z,25.45
2023-09-09T17:59:58.545Z,25.44
2023-09-09T18:02:25.208Z,25.30
2023-09-09T18:04:51.865Z,25.30
2023-09-09T18:07:18.533Z,25.23
2023-09-09T18:09:45.248Z,25.17
2023-09-09T18:12:11.934Z,25.11
2023-09-09T18:14:38.570Z,25.05
2023-09-09T18:17:07.743Z,25.08
2023-09-09T18:19:34.864Z,25.08
2023-09-09T18:22:01.746Z,25.09
2023-09-09T18:24:28.510Z,25.03
2023-09-09T18:26:55.202Z,24.93
2023-09-09T18:29:25.304Z,24.86
2023-09-09T18:31:53.290Z,24.86
2023-09-09T18:34:20.008Z,24.75
2023-09-09T18:36:46.705Z,24.65
2023-09-09T18:39:13.361Z,24.51
2023-09-09T18:41:40.749Z,24.48
2023-09-09T18:44:07.552Z,24.38
2023-09-09T18:46:34.360Z,24.33
2023-09-09T18:49:02.179Z,24.27
2023-09-09T18:51:29.002Z,24.27
2023-09-09T18:53:55.773Z,24.19
2023-09-09T18:56:23.696Z,24.09
2023-09-09T18:58:50.649Z,24.11
2023-09-09T19:01:17.275Z,24.12
2023-09-09T19:03:44.045Z,24.20
2023-09-09T19:06:11.259Z,24.18
2023-09-09T19:08:38.290Z,24.11
2023-09-09T19:11:06.035Z,24.03
2023-09-09T19:13:32.832Z,23.91
2023-09-09T19:15:59.624Z,23.84
2023-09-09T19:18:27.818Z,23.74
2023-09-09T19:20:54.434Z,23.69
2023-09-09T19:23:21.119Z,23.54
2023-09-09T19:25:51.612Z,23.31
2023-09-09T19:28:18.347Z,23.16
2023-09-09T19:30:45.183Z,23.02
2023-09-09T19:33:11.909Z,22.92
2023-09-09T19:35:38.496Z,22.89
2023-09-09T19:38:05.313Z,22.97
2023-09-09T19:40:31.987Z,23.00
2023-09-09T19:42:58.683Z,22.98
2023-09-09T19:45:25.506Z,22.97
2023-09-09T19:47:52.157Z,22.96
2023-09-09T19:50:18.945Z,22.93
2023-09-09T19:52:45.886Z,22.88
2023-09-09T19:55:13.106Z,22.78
2023-09-09T19:57:39.639Z,22.67
2023-09-09T20:00:08.742Z,22.59
2023-09-09T20:02:35.599Z,22.36
2023-09-09T20:05:02.391Z,22.28
2023-09-09T20:07:29.145Z,22.07
2023-09-09T20:10:09.182Z,22.00
2023-09-09T20:12:35.851Z,21.94
2023-09-09T20:15:02.737Z,21.70
2023-09-09T20:17:29.439Z,21.81
2023-09-09T20:19:56.155Z,21.73
2023-09-09T20:22:25.629Z,21.51
2023-09-09T20:24:53.548Z,21.41
2023-09-09T20:27:20.267Z,21.48
2023-09-09T20:29:46.885Z,21.49
2023-09-09T20:32:13.613Z,21.55
2023-09-09T20:34:41.994Z,21.37
2023-09-09T20:37:09.175Z,21.48
2023-09-09T20:39:35.887Z,21.33
2023-09-09T20:42:02.980Z,21.42
2023-09-09T20:44:31.458Z,21.41
2023-09-09T20:46:58.524Z,21.23
2023-09-09T20:49:25.258Z,21.13
2023-09-09T20:51:51.938Z,21.06
2023-09-09T20:54:18.637Z,20.87
2023-09-09T20:56:45.283Z,20.73
2023-09-09T20:59:12.146Z,20.67
2023-09-09T21:01:39.175Z,20.62
2023-09-09T21:04:06.395Z,20.39
2023-09-09T21:06:33.072Z,20.50
2023-09-09T21:08:59.733Z,20.33
2023-09-09T21:11:26.423Z,20.36
2023-09-09T21:13:53.170Z,20.13
2023-09-09T21:16:20.804Z,19.99
2023-09-09T21:18:47.694Z,19.88
2023-09-09T21:21:14.629Z,19.63
2023-09-09T21:23:42.148Z,19.71
2023-09-09T21:26:08.880Z,19.60
2023-09-09T21:28:37.072Z,19.61
2023-09-09T21:31:04.693Z,19.61
2023-09-09T21:33:31.997Z,19.56
2023-09-09T21:35:58.655Z,19.60
2023-09-09T21:38:25.295Z,19.60
2023-09-09T21:40:51.894Z,19.49
2023-09-09T21:43:19.908Z,19.45
2023-09-09T21:45:46.884Z,19.36
2023-09-09T21:48:13.589Z,19.35
2023-09-09T21:50:40.956Z,19.29
2023-09-09T21:53:07.704Z,19.39
2023-09-09T21:55:34.403Z,19.36
2023-09-09T21:58:01.075Z,19.29
2023-09-09T22:00:27.883Z,19.18
2023-09-09T22:02:54.798Z,19.01
2023-09-09T22:05:21.551Z,19.07
2023-09-09T22:07:48.473Z,19.09
2023-09-09T22:10:15.502Z,19.09
2023-09-09T22:12:42.351Z,18.85
2023-09-09T22:15:10.162Z,18.94
2023-09-09T22:17:37.370Z,18.92
2023-09-09T22:20:09.267Z,18.65
2023-09-09T22:22:37.259Z,18.55
2023-09-09T22:25:07.643Z,18.41
2023-09-09T22:27:34.582Z,18.28
2023-09-09T22:30:01.324Z,18.21
2023-09-09T22:32:27.904Z,18.19
2023-09-09T22:34:57.193Z,18.16
2023-09-09T22:37:24.795Z,18.09
2023-09-09T22:39:51.926Z,18.22
2023-09-09T22:42:18.589Z,18.19
2023-09-09T22:44:45.249Z,18.17
2023-09-09T22:47:11.933Z,17.95
2023-09-09T22:49:40.514Z,17.97
2023-09-09T22:52:08.653Z,17.95
2023-09-09T22:54:35.622Z,17.84
2023-09-09T22:57:02.367Z,17.89
2023-09-09T22:59:29.024Z,17.91
2023-09-09T23:01:55.728Z,17.75
2023-09-09T23:04:22.601Z,17.73
2023-09-09T23:06:49.418Z,17.84
2023-09-09T23:09:16.102Z,17.66
2023-09-09T23:11:42.706Z,17.53
2023-09-09T23:14:09.391Z,17.39
2023-09-09T23:16:38.500Z,17.33
2023-09-09T23:19:08.579Z,17.21
2023-09-09T23:21:35.831Z,17.21
2023-09-09T23:24:05.030Z,17.17
2023-09-09T23:26:31.747Z,17.12
2023-09-09T23:28:58.966Z,17.20
2023-09-09T23:31:27.584Z,17.03
2023-09-09T23:33:54.315Z,17.18
2023-09-09T23:36:21.059Z,17.13
2023-09-09T23:38:47.742Z,16.95
2023-09-09T23:41:14.416Z,16.89
2023-09-09T23:43:42.144Z,16.87
2023-09-09T23:46:08.959Z,16.85
2023-09-09T23:48:35.795Z,16.91
2023-09-09T23:51:03.278Z,16.88
2023-09-09T23:53:30.137Z,16.71
2023-09-09T23:55:56.855Z,16.60
2023-09-09T23:58:24.022Z,16.57
